createdAt,value
2023-05-25T00:01:49.474Z,27.47
2023-05-25T00:04:19.577Z,28.33
2023-05-25T00:06:49.138Z,28.21
2023-05-25T00:09:17.199Z,27.38
2023-05-25T00:11:45.363Z,27.47
2023-05-25T00:14:13.409Z,27.12
2023-05-25T00:16:41.538Z,28.01
2023-05-25T00:19:10.766Z,27.56
2023-05-25T00:21:39.196Z,27.52
2023-05-25T00:24:08.953Z,27.23
2023-05-25T00:26:36.964Z,27.59
2023-05-25T00:29:05.181Z,26.73
2023-05-25T00:31:35.585Z,26.27
2023-05-25T00:34:03.799Z,27.38
2023-05-25T00:36:31.779Z,28.00
2023-05-25T00:38:59.784Z,26.59
2023-05-25T00:41:29.175Z,26.74
2023-05-25T00:43:57.203Z,26.45
2023-05-25T00:46:25.250Z,26.82
2023-05-25T00:48:53.592Z,26.40
2023-05-25T00:51:21.673Z,26.94
2023-05-25T00:53:49.702Z,27.03
2023-05-25T00:56:20.244Z,26.44
2023-05-25T00:58:49.843Z,26.42
2023-05-25T01:01:17.871Z,26.57
2023-05-25T01:03:47.855Z,26.45
2023-05-25T01:06:16.946Z,26.33
2023-05-25T01:08:46.432Z,26.91
2023-05-25T01:11:14.388Z,26.08
2023-05-25T01:13:42.770Z,26.52
2023-05-25T01:16:12.208Z,26.45
2023-05-25T01:18:41.921Z,26.82
2023-05-25T01:21:14.117Z,25.45
2023-05-25T01:23:44.165Z,26.13
2023-05-25T01:26:14.830Z,26.71
2023-05-25T01:28:46.481Z,26.92
2023-05-25T01:31:14.782Z,26.34
2023-05-25T01:33:43.043Z,27.12
2023-05-25T01:36:12.526Z,26.52
2023-05-25T01:38:40.927Z,26.47
2023-05-25T01:41:09.122Z,27.18
2023-05-25T01:43:37.138Z,27.24
2023-05-25T01:52:14.427Z,27.60
2023-05-25T01:54:44.751Z,27.61
2023-05-25T01:57:13.673Z,27.08
2023-05-25T01:59:41.977Z,27.55
2023-05-25T02:02:10.021Z,27.68
2023-05-25T02:04:38.035Z,27.77
2023-05-25T02:07:06.380Z,27.34
2023-05-25T02:09:35.790Z,27.23
2023-05-25T02:12:03.813Z,27.71
2023-05-25T02:14:31.880Z,27.63
2023-05-25T02:17:02.056Z,27.73
2023-05-25T02:19:30.260Z,27.81
2023-05-25T02:21:58.279Z,28.39
2023-05-25T02:24:26.509Z,27.45
2023-05-25T02:26:55.978Z,27.76
2023-05-25T02:29:23.944Z,28.08
2023-05-25T02:31:52.137Z,27.88
2023-05-25T02:34:20.155Z,28.25
2023-05-25T02:36:48.170Z,27.34
2023-05-25T02:39:16.208Z,27.69
2023-05-25T02:41:44.226Z,27.86
2023-05-25T02:44:13.610Z,27.29
2023-05-25T02:46:41.705Z,27.67
2023-05-25T02:49:09.776Z,27.40
2023-05-25T02:51:38.020Z,28.03
2023-05-25T02:54:06.865Z,27.88
2023-05-25T02:56:34.852Z,27.78
2023-05-25T02:59:02.940Z,28.24
2023-05-25T03:01:32.411Z,27.90
2023-05-25T03:04:00.730Z,27.25
2023-05-25T03:06:28.792Z,27.99
2023-05-25T03:08:56.956Z,28.13
2023-05-25T03:11:24.991Z,28.29
2023-05-25T03:13:53.069Z,28.09
2023-05-25T03:16:23.243Z,28.24
2023-05-25T03:18:52.789Z,27.63
2023-05-25T03:21:22.410Z,28.81
2023-05-25T03:23:50.517Z,28.24
2023-05-25T03:26:18.836Z,28.12
2023-05-25T03:28:46.805Z,27.84
2023-05-25T03:31:14.969Z,27.63
2023-05-25T03:33:43.095Z,28.18
2023-05-25T03:36:13.713Z,27.82
2023-05-25T03:38:41.748Z,27.80
2023-05-25T03:41:09.768Z,27.11
2023-05-25T03:43:37.794Z,28.08
2023-05-25T03:46:05.878Z,26.41
2023-05-25T03:48:33.952Z,26.66
2023-05-25T03:51:01.947Z,26.44
2023-05-25T03:53:31.298Z,26.49
2023-05-25T03:55:59.639Z,27.49
2023-05-25T03:58:27.625Z,27.69
2023-05-25T04:00:56.298Z,27.37
2023-05-25T04:03:24.456Z,27.17
2023-05-25T04:05:52.544Z,26.82
2023-05-25T04:08:20.632Z,27.78
2023-05-25T04:10:50.056Z,27.88
2023-05-25T04:13:18.081Z,28.41
2023-05-25T04:15:46.330Z,27.67
2023-05-25T04:18:14.565Z,28.31
2023-05-25T04:20:42.743Z,27.47
2023-05-25T04:23:12.050Z,26.42
2023-05-25T04:25:40.092Z,27.87
2023-05-25T04:28:09.408Z,26.79
2023-05-25T04:30:37.876Z,27.38
2023-05-25T04:33:06.282Z,28.22
2023-05-25T04:35:34.272Z,28.36
2023-05-25T04:38:02.978Z,28.86
2023-05-25T04:40:33.103Z,27.63
2023-05-25T04:43:01.190Z,28.28
2023-05-25T04:45:31.999Z,28.09
2023-05-25T04:48:01.638Z,27.41
2023-05-25T04:50:29.857Z,27.98
2023-05-25T04:52:58.023Z,28.96
2023-05-25T04:55:26.002Z,28.52
2023-05-25T04:57:55.004Z,28.87
2023-05-25T05:00:23.149Z,27.85
2023-05-25T05:02:52.586Z,27.61
2023-05-25T05:05:20.812Z,26.91
2023-05-25T05:07:48.931Z,27.67
2023-05-25T05:10:17.830Z,27.35
2023-05-25T05:12:45.809Z,26.86
2023-05-25T05:15:13.825Z,27.67
2023-05-25T05:17:41.923Z,26.44
2023-05-25T05:20:11.794Z,26.92
2023-05-25T05:22:39.899Z,26.58
2023-05-25T05:25:08.315Z,27.31
2023-05-25T05:27:36.355Z,27.05
2023-05-25T05:30:04.604Z,26.40
2023-05-25T05:32:32.634Z,27.08
2023-05-25T05:35:01.073Z,27.75
2023-05-25T05:37:30.679Z,27.42
2023-05-25T05:39:58.670Z,27.90
2023-05-25T05:42:26.812Z,28.36
2023-05-25T05:44:54.792Z,28.28
2023-05-25T05:47:22.865Z,27.75
2023-05-25T05:49:50.883Z,28.48
2023-05-25T05:52:18.914Z,28.47
2023-05-25T05:54:48.235Z,27.72
2023-05-25T05:57:16.274Z,28.22
2023-05-25T05:59:44.264Z,26.95
2023-05-25T06:02:12.408Z,27.42
2023-05-25T06:04:41.364Z,27.66
2023-05-25T06:07:09.453Z,28.59
2023-05-25T06:09:37.504Z,26.62
2023-05-25T06:12:07.309Z,26.98
2023-05-25T06:14:35.577Z,27.23
2023-05-25T06:17:03.634Z,27.61
2023-05-25T06:19:31.738Z,27.98
2023-05-25T06:21:59.839Z,26.97
2023-05-25T06:24:27.858Z,27.65
2023-05-25T06:26:55.897Z,28.39
2023-05-25T06:29:25.403Z,29.02
2023-05-25T06:31:53.401Z,28.69
2023-05-25T06:34:21.498Z,27.98
2023-05-25T06:36:49.545Z,27.66
2023-05-25T06:39:17.665Z,27.90
2023-05-25T06:41:45.733Z,27.93
2023-05-25T06:44:15.420Z,28.83
2023-05-25T06:46:45.271Z,27.17
2023-05-25T06:49:25.437Z,27.51
2023-05-25T06:51:53.418Z,27.89
2023-05-25T06:54:21.433Z,27.78
2023-05-25T06:56:49.421Z,27.08
2023-05-25T06:59:18.406Z,27.73
2023-05-25T07:01:48.384Z,27.75
2023-05-25T07:04:16.426Z,27.06
2023-05-25T07:06:44.495Z,27.34
2023-05-25T07:09:12.759Z,28.25
2023-05-25T07:11:40.774Z,28.32
2023-05-25T07:14:08.737Z,28.50
2023-05-25T07:16:36.903Z,29.08
2023-05-25T07:19:06.340Z,29.10
2023-05-25T07:21:34.385Z,28.65
2023-05-25T07:24:02.453Z,28.88
2023-05-25T07:26:31.912Z,29.22
2023-05-25T07:28:59.980Z,28.89
2023-05-25T07:31:28.039Z,28.33
2023-05-25T07:33:56.444Z,28.90
2023-05-25T07:36:25.823Z,29.69
2023-05-25T07:38:53.974Z,29.13
2023-05-25T07:41:22.025Z,28.70
2023-05-25T07:43:50.063Z,29.50
2023-05-25T07:46:21.052Z,29.12
2023-05-25T07:48:49.141Z,28.13
2023-05-25T07:51:17.168Z,28.27
2023-05-25T07:53:46.548Z,29.04
2023-05-25T07:56:14.562Z,29.97
2023-05-25T07:58:42.555Z,28.62
2023-05-25T08:01:10.538Z,29.54
2023-05-25T08:06:24.351Z,28.77
2023-05-25T08:08:53.892Z,29.83
2023-05-25T08:11:24.170Z,29.44
2023-05-25T08:13:52.299Z,29.27
2023-05-25T08:16:20.416Z,29.19
2023-05-25T08:18:48.482Z,29.54
2023-05-25T08:21:16.453Z,28.87
2023-05-25T08:23:44.446Z,28.14
2023-05-25T08:26:34.119Z,29.55
2023-05-25T08:29:02.443Z,30.14
2023-05-25T08:31:30.925Z,30.17
2023-05-25T08:33:59.062Z,29.41
2023-05-25T08:36:27.379Z,31.41
2023-05-25T08:38:55.407Z,30.36
2023-05-25T08:41:24.897Z,29.97
2023-05-25T08:43:52.866Z,29.60
2023-05-25T08:46:25.299Z,30.01
2023-05-25T08:48:53.422Z,29.44
2023-05-25T08:51:21.525Z,29.94
2023-05-25T08:53:49.565Z,28.56
2023-05-25T08:56:19.186Z,29.37
2023-05-25T08:58:54.268Z,30.96
2023-05-25T09:01:22.388Z,31.10
2023-05-25T09:03:51.008Z,30.10
2023-05-25T09:06:19.103Z,30.02
2023-05-25T09:08:47.244Z,29.01
2023-05-25T09:11:17.390Z,28.85
2023-05-25T09:13:59.237Z,29.26
2023-05-25T09:16:27.284Z,30.15
2023-05-25T09:18:55.324Z,31.02
2023-05-25T09:21:23.321Z,32.01
2023-05-25T09:23:51.392Z,30.19
2023-05-25T09:26:19.544Z,29.92
2023-05-25T09:28:48.045Z,30.45
2023-05-25T09:31:17.657Z,31.79
2023-05-25T09:33:46.042Z,31.85
2023-05-25T09:36:15.329Z,30.57
2023-05-25T09:38:43.581Z,30.68
2023-05-25T09:41:11.720Z,30.93
2023-05-25T09:43:44.970Z,30.71
2023-05-25T09:46:18.545Z,30.21
2023-05-25T09:48:48.685Z,30.18
2023-05-25T09:51:16.670Z,31.74
2023-05-25T09:53:45.058Z,32.89
2023-05-25T09:56:13.230Z,31.79
2023-05-25T09:58:41.958Z,30.45
2023-05-25T10:01:10.016Z,31.10
2023-05-25T10:03:43.697Z,33.02
2023-05-25T10:06:14.705Z,32.65
2023-05-25T10:08:42.954Z,31.08
2023-05-25T10:11:11.085Z,31.79
2023-05-25T10:13:39.259Z,32.22
2023-05-25T10:16:07.440Z,32.30
2023-05-25T10:18:36.002Z,31.24
2023-05-25T10:21:06.882Z,30.85
2023-05-25T10:23:37.069Z,30.91
2023-05-25T10:26:05.368Z,31.69
2023-05-25T10:28:35.314Z,32.18
2023-05-25T10:31:03.481Z,32.76
2023-05-25T10:36:10.655Z,32.51
2023-05-25T10:38:40.276Z,31.72
2023-05-25T10:41:09.656Z,31.92
2023-05-25T10:43:37.686Z,31.79
2023-05-25T10:46:05.716Z,32.68
2023-05-25T10:48:37.467Z,34.06
2023-05-25T10:51:09.037Z,33.65
2023-05-25T10:53:38.049Z,32.73
2023-05-25T10:56:06.737Z,31.91
2023-05-25T10:58:35.152Z,32.54
2023-05-25T11:01:03.682Z,33.36
2023-05-25T11:03:46.808Z,34.37
2023-05-25T11:06:16.635Z,34.79
2023-05-25T11:08:51.249Z,33.44
2023-05-25T11:11:19.277Z,33.03
2023-05-25T11:13:47.536Z,32.70
2023-05-25T11:16:17.733Z,32.49
2023-05-25T11:18:47.178Z,34.17
2023-05-25T11:21:18.676Z,33.55
2023-05-25T11:23:56.855Z,32.81
2023-05-25T11:26:26.107Z,34.89
2023-05-25T11:28:54.395Z,34.46
2023-05-25T11:31:24.384Z,34.88
2023-05-25T11:33:57.248Z,34.85
2023-05-25T11:36:26.889Z,36.88
2023-05-25T11:39:04.866Z,34.42
2023-05-25T11:41:37.528Z,33.55
2023-05-25T11:44:06.036Z,35.52
2023-05-25T11:46:34.861Z,36.23
2023-05-25T11:49:03.263Z,34.14
2023-05-25T11:51:32.634Z,34.77
2023-05-25T11:54:00.653Z,35.19
2023-05-25T11:56:35.566Z,38.15
2023-05-25T11:59:04.398Z,34.52
2023-05-25T12:01:32.863Z,34.97
2023-05-25T12:04:06.174Z,36.89
2023-05-25T12:06:36.935Z,36.20
2023-05-25T12:09:06.353Z,35.19
2023-05-25T12:11:34.905Z,35.86
2023-05-25T12:14:05.048Z,34.90
2023-05-25T12:16:33.091Z,34.52
2023-05-25T12:19:02.024Z,35.59
2023-05-25T12:21:30.022Z,34.57
2023-05-25T12:23:59.519Z,34.21
2023-05-25T12:26:29.548Z,34.61
2023-05-25T12:29:01.189Z,34.64
2023-05-25T12:31:29.902Z,35.56
2023-05-25T12:34:07.312Z,34.37
2023-05-25T12:36:45.720Z,33.87
2023-05-25T12:39:15.753Z,35.18
2023-05-25T12:41:47.314Z,35.74
2023-05-25T12:44:19.086Z,33.95
2023-05-25T12:46:47.099Z,35.51
2023-05-25T12:49:28.136Z,33.65
2023-05-25T12:51:56.132Z,33.70
2023-05-25T12:54:38.452Z,34.34
2023-05-25T12:57:06.883Z,35.20
2023-05-25T12:59:35.491Z,36.03
2023-05-25T13:02:03.690Z,35.71
2023-05-25T13:04:31.772Z,36.56
2023-05-25T13:06:59.871Z,35.71
2023-05-25T13:09:27.980Z,34.86
2023-05-25T13:11:57.542Z,34.09
2023-05-25T13:14:25.663Z,34.63
2023-05-25T13:16:54.184Z,35.88
2023-05-25T13:19:22.764Z,37.56
2023-05-25T13:21:51.912Z,35.53
2023-05-25T13:24:20.594Z,34.36
2023-05-25T13:26:51.112Z,34.15
2023-05-25T13:29:20.717Z,33.66
2023-05-25T13:31:48.753Z,35.94
2023-05-25T13:34:17.832Z,34.63
2023-05-25T13:36:46.118Z,36.72
2023-05-25T13:39:14.868Z,35.80
2023-05-25T13:41:43.818Z,36.16
2023-05-25T13:44:15.142Z,37.19
2023-05-25T13:46:46.806Z,37.38
2023-05-25T13:49:16.344Z,36.06
2023-05-25T13:51:44.411Z,37.67
2023-05-25T13:54:13.679Z,37.17
2023-05-25T13:56:42.418Z,38.02
2023-05-25T13:59:10.621Z,37.42
2023-05-25T14:01:38.767Z,35.45
2023-05-25T14:04:08.260Z,36.66
2023-05-25T14:06:36.466Z,36.83
2023-05-25T14:09:04.586Z,38.23
2023-05-25T14:11:32.701Z,36.31
2023-05-25T14:14:00.762Z,37.09
2023-05-25T14:16:28.899Z,37.17
2023-05-25T14:18:57.561Z,38.23
2023-05-25T14:21:29.923Z,38.41
2023-05-25T14:24:00.386Z,36.03
2023-05-25T14:26:29.252Z,38.10
2023-05-25T14:28:57.534Z,36.35
2023-05-25T14:31:25.612Z,37.23
2023-05-25T14:33:53.854Z,37.48
2023-05-25T14:36:21.933Z,37.15
2023-05-25T14:38:51.350Z,37.13
2023-05-25T14:41:19.386Z,35.83
2023-05-25T14:43:47.378Z,36.40
2023-05-25T14:46:15.506Z,37.55
2023-05-25T14:48:43.584Z,37.10
2023-05-25T14:51:11.596Z,36.46
2023-05-25T14:53:39.636Z,37.62
2023-05-25T14:56:11.108Z,36.45
2023-05-25T14:58:39.457Z,36.98
2023-05-25T15:01:07.497Z,36.40
2023-05-25T15:03:35.638Z,37.40
2023-05-25T15:06:03.784Z,36.86
2023-05-25T15:08:31.785Z,37.84
2023-05-25T15:10:59.781Z,38.23
2023-05-25T15:13:29.115Z,37.80
2023-05-25T15:15:57.844Z,36.76
2023-05-25T15:18:25.990Z,37.65
2023-05-25T15:20:54.068Z,36.48
2023-05-25T15:23:22.169Z,38.54
2023-05-25T15:25:50.120Z,38.96
2023-05-25T15:28:18.107Z,37.29
2023-05-25T15:30:47.728Z,38.35
2023-05-25T15:33:15.773Z,37.77
2023-05-25T15:35:44.014Z,36.28
2023-05-25T15:38:12.109Z,36.83
2023-05-25T15:40:40.256Z,37.78
2023-05-25T15:43:08.246Z,37.58
2023-05-25T15:45:36.226Z,39.70
2023-05-25T15:48:09.226Z,37.81
2023-05-25T15:50:39.469Z,38.47
2023-05-25T15:53:07.523Z,37.08
2023-05-25T15:55:35.657Z,37.20
2023-05-25T15:58:03.660Z,38.18
2023-05-25T16:00:32.953Z,37.92
2023-05-25T16:03:01.093Z,39.12
2023-05-25T16:05:30.864Z,38.17
2023-05-25T16:07:58.881Z,38.79
2023-05-25T16:10:26.921Z,37.28
2023-05-25T16:12:54.954Z,37.79
2023-05-25T16:15:24.101Z,37.85
2023-05-25T16:17:52.149Z,37.60
2023-05-25T16:20:20.196Z,38.66
2023-05-25T16:22:49.578Z,39.10
2023-05-25T16:25:17.564Z,37.68
2023-05-25T16:27:45.567Z,38.31
2023-05-25T16:30:13.930Z,37.85
2023-05-25T16:32:42.020Z,38.23
2023-05-25T16:35:10.362Z,38.59
2023-05-25T16:37:38.656Z,38.43
2023-05-25T16:40:09.056Z,38.64
2023-05-25T16:42:37.060Z,37.60
2023-05-25T16:45:05.421Z,37.88
2023-05-25T16:47:33.455Z,37.57
2023-05-25T16:50:01.479Z,37.23
2023-05-25T16:52:29.574Z,39.17
2023-05-25T16:54:59.120Z,39.72
2023-05-25T16:57:28.552Z,39.53
2023-05-25T16:59:56.528Z,39.95
2023-05-25T17:02:24.612Z,39.94
2023-05-25T17:04:52.676Z,39.71
2023-05-25T17:07:20.686Z,39.57
2023-05-25T17:09:48.695Z,39.94
2023-05-25T17:12:16.859Z,40.11
2023-05-25T17:14:46.267Z,40.61
2023-05-25T17:17:14.549Z,40.29
2023-05-25T17:19:42.546Z,41.25
2023-05-25T17:22:10.672Z,40.75
2023-05-25T17:24:38.649Z,41.13
2023-05-25T17:27:06.926Z,40.29
2023-05-25T17:29:34.937Z,40.14
2023-05-25T17:32:04.420Z,39.63
2023-05-25T17:34:32.480Z,39.95
2023-05-25T17:37:00.573Z,39.84
2023-05-25T17:39:28.724Z,41.38
2023-05-25T17:41:56.681Z,42.33
2023-05-25T17:44:26.052Z,41.55
2023-05-25T17:46:54.069Z,42.56
2023-05-25T17:49:23.471Z,42.15
2023-05-25T17:51:51.475Z,41.03
2023-05-25T17:54:25.416Z,41.72
2023-05-25T17:56:53.580Z,40.91
2023-05-25T17:59:21.610Z,41.88
2023-05-25T18:01:49.651Z,41.15
2023-05-25T18:04:19.502Z,38.90
2023-05-25T18:06:51.536Z,39.48
2023-05-25T18:09:19.616Z,39.00
2023-05-25T18:11:47.806Z,38.65
2023-05-25T18:14:15.871Z,38.42
2023-05-25T18:16:44.819Z,37.78
2023-05-25T18:19:15.244Z,38.23
2023-05-25T18:21:43.232Z,38.06
2023-05-25T18:24:12.615Z,38.11
2023-05-25T18:26:41.689Z,37.98
2023-05-25T18:29:09.726Z,37.80
2023-05-25T18:31:37.773Z,37.03
2023-05-25T18:34:06.878Z,37.42
2023-05-25T18:36:34.920Z,37.18
2023-05-25T18:39:02.961Z,37.23
2023-05-25T18:41:32.386Z,36.74
2023-05-25T18:44:00.411Z,36.46
2023-05-25T18:46:29.127Z,36.81
2023-05-25T18:48:57.195Z,36.60
2023-05-25T18:51:25.990Z,36.74
2023-05-25T18:53:54.764Z,36.44
2023-05-25T18:56:22.771Z,36.39
2023-05-25T18:58:54.710Z,36.37
2023-05-25T19:01:22.752Z,36.21
2023-05-25T19:03:51.009Z,36.13
2023-05-25T19:06:19.214Z,36.05
2023-05-25T19:08:47.226Z,35.73
2023-05-25T19:11:15.558Z,35.61
2023-05-25T19:13:43.566Z,35.63
2023-05-25T19:16:13.013Z,35.52
2023-05-25T19:18:41.074Z,35.48
2023-05-25T19:21:09.094Z,35.30
2023-05-25T19:23:37.180Z,35.32
2023-05-25T19:26:05.176Z,35.02
2023-05-25T19:28:33.177Z,35.27
2023-05-25T19:31:01.310Z,35.30
2023-05-25T19:33:30.647Z,35.29
2023-05-25T19:35:58.638Z,35.28
2023-05-25T19:38:31.453Z,35.27
2023-05-25T19:41:05.913Z,35.21
2023-05-25T19:43:34.005Z,35.16
2023-05-25T19:46:02.016Z,35.11
2023-05-25T19:48:31.871Z,35.05
2023-05-25T19:51:00.961Z,35.01
2023-05-25T19:53:30.468Z,34.91
2023-05-25T19:55:58.503Z,34.86
2023-05-25T19:58:26.452Z,34.85
2023-05-25T20:00:54.638Z,34.79
2023-05-25T20:03:22.812Z,34.77
2023-05-25T20:05:52.329Z,34.62
2023-05-25T20:08:20.356Z,34.59
2023-05-25T20:10:48.351Z,34.54
2023-05-25T20:13:16.406Z,34.64
2023-05-25T20:15:44.687Z,34.66
2023-05-25T20:18:12.884Z,34.39
2023-05-25T20:20:40.995Z,34.64
2023-05-25T20:23:10.693Z,34.65
2023-05-25T20:25:38.703Z,34.33
2023-05-25T20:28:06.808Z,34.29
2023-05-25T20:30:34.897Z,34.33
2023-05-25T20:33:03.093Z,33.91
2023-05-25T20:35:31.206Z,34.10
2023-05-25T20:37:59.199Z,34.03
2023-05-25T20:40:28.622Z,33.91
2023-05-25T20:43:01.303Z,33.96
2023-05-25T20:45:44.559Z,33.75
2023-05-25T20:48:12.647Z,33.71
2023-05-25T20:50:40.684Z,33.62
2023-05-25T20:53:08.754Z,33.59
2023-05-25T20:55:38.082Z,33.35
2023-05-25T20:58:06.093Z,33.25
2023-05-25T21:00:34.113Z,33.17
2023-05-25T21:03:02.313Z,33.12
2023-05-25T21:05:30.435Z,32.81
2023-05-25T21:07:58.462Z,32.75
2023-05-25T21:10:26.479Z,32.15
2023-05-25T21:12:56.064Z,32.37
2023-05-25T21:15:24.105Z,32.45
2023-05-25T21:17:52.250Z,31.96
2023-05-25T21:20:20.546Z,31.72
2023-05-25T21:22:48.594Z,31.97
2023-05-25T21:25:16.747Z,32.27
2023-05-25T21:27:44.764Z,32.28
2023-05-25T21:30:14.518Z,32.29
2023-05-25T21:32:42.560Z,32.30
2023-05-25T21:35:10.731Z,32.21
2023-05-25T21:37:38.749Z,32.14
2023-05-25T21:40:07.248Z,31.85
2023-05-25T21:42:35.204Z,31.75
2023-05-25T21:45:03.421Z,31.83
2023-05-25T21:47:32.904Z,31.81
2023-05-25T21:50:00.925Z,31.75
2023-05-25T21:52:28.945Z,31.76
2023-05-25T21:54:57.511Z,31.66
2023-05-25T21:57:25.567Z,31.55
2023-05-25T21:59:53.670Z,31.51
2023-05-25T22:02:21.751Z,31.25
2023-05-25T22:04:51.192Z,30.98
2023-05-25T22:07:19.180Z,30.66
2023-05-25T22:09:47.228Z,30.45
2023-05-25T22:12:15.305Z,30.59
2023-05-25T22:14:43.288Z,30.82
2023-05-25T22:17:11.388Z,30.45
2023-05-25T22:19:39.471Z,29.69
2023-05-25T22:22:08.805Z,28.98
2023-05-25T22:24:37.114Z,29.33
2023-05-25T22:27:06.069Z,29.87
2023-05-25T22:29:34.075Z,30.03
2023-05-25T22:32:02.269Z,30.39
2023-05-25T22:34:30.270Z,30.02
2023-05-25T22:36:58.265Z,29.48
2023-05-25T22:39:27.608Z,29.99
2023-05-25T22:41:55.590Z,29.61
2023-05-25T22:44:23.621Z,29.65
2023-05-25T22:46:51.646Z,29.90
2023-05-25T22:49:19.721Z,29.83
2023-05-25T22:51:47.724Z,30.01
2023-05-25T22:54:15.804Z,29.79
2023-05-25T22:56:45.184Z,29.63
2023-05-25T22:59:13.201Z,29.33
2023-05-25T23:01:41.235Z,29.47
2023-05-25T23:04:09.354Z,29.80
2023-05-25T23:06:37.628Z,29.90
2023-05-25T23:09:05.634Z,29.82
2023-05-25T23:11:33.644Z,29.76
2023-05-25T23:14:02.976Z,29.76
2023-05-25T23:16:31.038Z,29.72
2023-05-25T23:18:59.057Z,29.62
2023-05-25T23:21:27.032Z,29.47
2023-05-25T23:23:55.023Z,29.49
2023-05-25T23:26:23.018Z,29.38
2023-05-25T23:28:51.131Z,29.41
2023-05-25T23:31:20.536Z,29.29
2023-05-25T23:33:48.616Z,29.32
2023-05-25T23:36:16.628Z,29.25
2023-05-25T23:38:44.597Z,29.15
2023-05-25T23:41:12.559Z,29.00
2023-05-25T23:43:40.572Z,28.79
2023-05-25T23:46:08.574Z,28.79
2023-05-25T23:48:37.928Z,28.78
2023-05-25T23:51:07.495Z,28.75
2023-05-25T23:53:35.508Z,28.74
2023-05-25T23:56:03.530Z,28.73
2023-05-25T23:58:31.555Z,28.66
